Time;durP1;ratioP1;P1;durP2;ratioP2;P2;SDS_P1;SDS_P2;PMS_P1;PMS_P2;Temp;Humidity;BMP_temperature;BMP_pressure;BME280_temperature;BME280_humidity;BME280_pressure;Samples;Min_cycle;Max_cycle;Signal;HPM_P1;HPM_P2
2022/09/11 00:12:52;;;;;;;15.85;13.38;;;15.50;99.90;;;;;;5964702;23;20064;-85
2022/09/11 00:34:10;;;;;;;14.73;13.20;;;15.20;99.90;;;;;;5768575;23;20027;-84
2022/09/11 01:02:38;;;;;;;12.45;11.18;;;15.00;99.90;;;;;;5494381;23;20068;-78
2022/09/11 01:05:05;;;;;;;13.25;11.65;;;15.00;99.90;;;;;;4920757;28;37566;-79
2022/09/11 01:07:34;;;;;;;17.08;12.80;;;15.00;99.90;;;;;;4940562;28;38047;-79
2022/09/11 01:10:02;;;;;;;14.50;13.00;;;15.00;99.90;;;;;;4945490;28;38777;-79
2022/09/11 01:12:49;;;;;;;13.55;12.15;;;15.00;99.90;;;;;;4940476;28;48608;-79
2022/09/11 01:15:21;;;;;;;16.75;12.77;;;14.90;99.90;;;;;;4929110;28;37514;-79
2022/09/11 01:18:06;;;;;;;14.50;12.73;;;14.90;99.90;;;;;;4942890;28;39239;-79
2022/09/11 01:20:53;;;;;;;13.75;11.45;;;14.90;99.90;;;;;;4940792;28;47984;-79
2022/09/11 01:24:04;;;;;;;15.50;13.35;;;14.90;99.90;;;;;;4948873;28;36544;-79
2022/09/11 01:26:46;;;;;;;18.15;13.95;;;14.90;99.90;;;;;;4881936;29;47291;-79
2022/09/11 01:29:21;;;;;;;17.08;12.52;;;14.90;99.90;;;;;;4940822;28;38192;-79
2022/09/11 01:31:57;;;;;;;16.20;12.88;;;14.90;99.90;;;;;;4924555;28;41296;-79
2022/09/11 01:34:52;;;;;;;16.30;13.43;;;14.90;99.90;;;;;;4948194;28;37967;-79
2022/09/11 01:37:35;;;;;;;16.73;14.25;;;14.90;99.90;;;;;;4952859;28;39158;-79
2022/09/11 01:40:03;;;;;;;;;;;14.90;99.90;;;;;;4935190;28;37045;-79
2022/09/11 01:42:33;;;;;;;14.10;12.27;;;14.90;99.90;;;;;;4925641;28;38837;-79
2022/09/11 01:45:02;;;;;;;15.25;13.52;;;14.80;99.90;;;;;;4953504;28;36582;-79
2022/09/11 01:47:31;;;;;;;15.02;13.43;;;14.80;99.90;;;;;;4938961;28;48732;-79
2022/09/11 01:50:10;;;;;;;18.17;14.20;;;14.80;99.90;;;;;;4951181;28;36582;-79
2022/09/11 01:52:59;;;;;;;18.15;13.82;;;14.70;99.90;;;;;;4933165;28;47332;-79
2022/09/11 01:55:36;;;;;;;15.82;12.02;;;14.80;99.90;;;;;;4952199;28;37261;-79
2022/09/11 01:58:28;;;;;;;14.13;12.55;;;14.70;99.90;;;;;;4930929;28;38799;-80
2022/09/11 02:01:09;;;;;;;15.38;13.80;;;14.70;99.90;;;;;;4927488;28;37620;-79
2022/09/11 02:03:43;;;;;;;17.05;14.70;;;14.70;99.90;;;;;;4947473;28;46981;-80
2022/09/11 02:06:25;;;;;;;16.33;14.30;;;14.60;99.90;;;;;;4953126;28;37739;-79
2022/09/11 02:09:15;;;;;;;16.30;14.60;;;14.70;99.90;;;;;;4955753;28;38891;-79
2022/09/11 02:11:43;;;;;;;16.10;14.50;;;14.70;99.90;;;;;;4956086;28;47157;-79
2022/09/11 02:14:24;;;;;;;15.27;13.68;;;14.60;99.90;;;;;;4953407;28;37678;-79
2022/09/11 02:17:05;;;;;;;16.10;13.43;;;14.60;99.90;;;;;;4938161;28;36805;-79
2022/09/11 02:19:31;;;;;;;15.23;13.32;;;14.60;99.90;;;;;;4932156;28;46963;-79
2022/09/11 02:21:58;;;;;;;16.90;15.02;;;14.50;99.90;;;;;;4965432;28;38852;-79
2022/09/11 02:24:26;;;;;;;15.80;12.98;;;14.60;99.90;;;;;;4953919;28;39419;-79
2022/09/11 02:27:00;;;;;;;14.70;13.07;;;14.50;99.90;;;;;;4935655;28;37360;-79
2022/09/11 02:29:26;;;;;;;17.17;13.20;;;14.60;99.90;;;;;;4939108;28;38486;-79
2022/09/11 02:31:53;;;;;;;15.23;12.95;;;14.50;99.90;;;;;;4933368;28;38816;-79
2022/09/11 02:34:28;;;;;;;18.27;14.65;;;14.50;99.90;;;;;;4956269;28;38676;-79
2022/09/11 02:37:17;;;;;;;15.60;13.93;;;14.50;99.90;;;;;;4937611;28;37148;-79
2022/09/11 02:39:43;;;;;;;21.15;15.40;;;14.50;99.90;;;;;;4952278;28;48540;-79
2022/09/11 02:42:24;;;;;;;16.02;14.05;;;14.50;99.90;;;;;;4933428;28;39024;-79
2022/09/11 02:45:27;;;;;;;16.92;13.80;;;14.50;99.90;;;;;;4946978;28;38022;-79
2022/09/11 02:48:10;;;;;;;18.27;14.60;;;14.50;99.90;;;;;;4917127;28;47382;-79
2022/09/11 02:51:00;;;;;;;13.88;12.32;;;14.40;99.90;;;;;;4953608;28;48688;-79
2022/09/11 02:53:42;;;;;;;19.50;14.32;;;14.40;99.90;;;;;;4928044;28;37925;-79
2022/09/11 02:56:20;;;;;;;13.40;11.75;;;14.40;99.90;;;;;;4934917;28;37107;-79
2022/09/11 02:58:54;;;;;;;15.10;12.30;;;14.40;99.90;;;;;;4936611;28;36166;-79
2022/09/11 03:01:21;;;;;;;17.70;14.05;;;14.30;99.90;;;;;;4933970;28;37910;-79
2022/09/11 03:03:48;;;;;;;20.25;16.60;;;14.30;99.90;;;;;;4957547;28;38350;-79
2022/09/11 03:06:20;;;;;;;18.95;14.43;;;14.40;99.90;;;;;;4957185;28;38174;-79
2022/09/11 03:08:47;;;;;;;16.38;14.50;;;14.30;99.90;;;;;;4947798;28;36279;-79
2022/09/11 03:11:14;;;;;;;15.73;14.02;;;14.30;99.90;;;;;;4936088;28;37626;-79
2022/09/11 03:13:40;;;;;;;19.10;13.77;;;14.30;99.90;;;;;;4941703;28;37650;-79
2022/09/11 03:16:06;;;;;;;19.25;15.85;;;14.30;99.90;;;;;;4941069;28;37065;-79
2022/09/11 03:18:33;;;;;;;19.48;15.90;;;14.30;99.90;;;;;;4949647;28;36195;-78
2022/09/11 03:21:00;;;;;;;19.58;15.50;;;14.30;99.90;;;;;;4949673;28;37833;-79
2022/09/11 03:23:26;;;;;;;19.90;16.50;;;14.30;99.90;;;;;;4937796;28;37734;-79
2022/09/11 03:25:53;;;;;;;19.42;16.52;;;14.30;99.90;;;;;;4953611;28;37069;-79
2022/09/11 03:28:21;;;;;;;19.55;15.23;;;14.30;99.90;;;;;;4937488;28;36238;-79
2022/09/11 03:30:48;;;;;;;17.33;15.40;;;14.20;99.90;;;;;;4955460;28;39395;-79
2022/09/11 03:33:17;;;;;;;18.05;14.82;;;14.20;99.90;;;;;;4932536;28;38407;-79
2022/09/11 03:35:44;;;;;;;16.30;14.60;;;14.20;99.90;;;;;;4936608;28;37530;-79
2022/09/11 03:38:11;;;;;;;19.58;15.10;;;14.10;99.90;;;;;;4939822;28;36473;-79
2022/09/11 03:40:38;;;;;;;19.83;15.82;;;14.10;99.90;;;;;;4927593;28;37637;-80
2022/09/11 03:43:04;;;;;;;18.15;15.75;;;14.10;99.90;;;;;;4934640;28;37186;-79
2022/09/11 03:45:31;;;;;;;21.17;16.75;;;14.10;99.90;;;;;;4955619;28;37048;-79
2022/09/11 03:47:57;;;;;;;20.23;17.08;;;14.10;99.90;;;;;;4935383;28;36665;-79
2022/09/11 03:50:23;;;;;;;25.17;17.70;;;14.10;99.90;;;;;;4944278;28;37940;-79
2022/09/11 03:52:50;;;;;;;17.23;15.43;;;14.10;99.90;;;;;;4939336;28;37606;-79
2022/09/11 03:55:16;;;;;;;19.63;16.05;;;14.00;99.90;;;;;;4949437;28;38035;-79
2022/09/11 03:57:42;;;;;;;22.65;18.45;;;14.00;99.90;;;;;;4932038;28;37469;-79
2022/09/11 04:00:09;;;;;;;20.85;17.67;;;13.90;99.90;;;;;;4938565;28;38596;-79
2022/09/11 04:02:35;;;;;;;25.08;19.17;;;13.90;99.90;;;;;;4935211;28;37536;-79
2022/09/11 04:05:02;;;;;;;23.92;18.35;;;13.90;99.90;;;;;;4939427;28;37316;-79
2022/09/11 04:07:30;;;;;;;21.77;18.25;;;13.90;99.90;;;;;;4944386;28;47366;-79
2022/09/11 04:09:57;;;;;;;20.98;17.13;;;13.90;99.90;;;;;;4936814;28;38811;-79
2022/09/11 04:12:23;;;;;;;19.92;16.92;;;13.90;99.90;;;;;;4949820;28;38404;-79
2022/09/11 04:14:49;;;;;;;24.52;18.23;;;13.90;99.90;;;;;;4930678;28;37958;-79
2022/09/11 04:17:16;;;;;;;22.05;16.75;;;13.90;99.90;;;;;;4950759;28;36518;-79
2022/09/11 04:19:42;;;;;;;22.13;16.77;;;13.90;99.90;;;;;;4931433;28;37942;-78
2022/09/11 04:22:09;;;;;;;21.30;17.95;;;13.80;99.90;;;;;;4953868;28;38901;-78
2022/09/11 04:24:35;;;;;;;19.45;17.25;;;13.80;99.90;;;;;;4953847;28;37771;-80
2022/09/11 04:27:01;;;;;;;20.05;16.50;;;13.80;99.90;;;;;;4940628;28;38380;-79
2022/09/11 04:29:27;;;;;;;21.85;17.77;;;13.80;99.90;;;;;;4939792;28;47200;-79
2022/09/11 04:31:54;;;;;;;20.83;17.48;;;13.80;99.90;;;;;;4955463;28;38394;-80
2022/09/11 04:34:21;;;;;;;20.30;16.98;;;13.80;99.90;;;;;;4938554;28;38545;-79
2022/09/11 04:36:47;;;;;;;22.63;17.80;;;13.80;99.90;;;;;;4965244;28;36631;-79
2022/09/11 04:39:13;;;;;;;22.13;17.90;;;13.80;99.90;;;;;;4973224;28;39383;-80
2022/09/11 04:41:39;;;;;;;24.90;19.58;;;13.80;99.90;;;;;;4948966;28;37975;-79
2022/09/11 04:44:05;;;;;;;21.45;18.42;;;13.80;99.90;;;;;;4961054;28;39073;-79
2022/09/11 04:46:32;;;;;;;21.00;17.42;;;13.80;99.90;;;;;;4965856;28;37310;-79
2022/09/11 04:48:58;;;;;;;20.88;18.23;;;13.80;99.90;;;;;;4966746;28;39473;-80
2022/09/11 04:51:27;;;;;;;26.33;21.58;;;13.80;99.90;;;;;;4949654;28;37681;-80
2022/09/11 04:53:56;;;;;;;23.33;19.20;;;13.80;99.90;;;;;;4945556;28;36756;-79
2022/09/11 04:56:28;;;;;;;26.42;19.10;;;13.80;99.90;;;;;;4954126;28;36616;-79
2022/09/11 04:59:04;;;;;;;25.23;18.92;;;13.80;99.90;;;;;;4942174;28;37389;-78
2022/09/11 05:01:32;;;;;;;26.65;20.65;;;13.80;99.90;;;;;;4960919;28;49055;-79
2022/09/11 05:04:01;;;;;;;26.05;20.67;;;13.80;99.90;;;;;;4961661;28;39151;-79
2022/09/11 05:06:29;;;;;;;24.30;19.45;;;13.80;99.90;;;;;;4935040;28;47220;-79
2022/09/11 05:08:59;;;;;;;25.10;19.50;;;13.70;99.90;;;;;;4938814;28;39036;-79
2022/09/11 05:11:25;;;;;;;24.05;20.13;;;13.70;99.90;;;;;;4950529;28;39645;-79
2022/09/11 05:13:52;;;;;;;22.25;18.83;;;13.70;99.90;;;;;;4958649;28;38026;-80
2022/09/11 05:16:18;;;;;;;29.02;21.95;;;13.80;99.90;;;;;;4938678;28;36381;-80
2022/09/11 05:18:50;;;;;;;26.13;20.23;;;13.70;99.90;;;;;;4930832;28;39155;-79
2022/09/11 05:21:17;;;;;;;26.02;21.85;;;13.70;99.90;;;;;;4955555;28;38641;-80
2022/09/11 05:23:47;;;;;;;29.20;22.67;;;13.70;99.90;;;;;;4954942;28;36891;-80
2022/09/11 05:26:16;;;;;;;25.10;19.45;;;13.70;99.90;;;;;;4937310;28;36611;-80
2022/09/11 05:28:42;;;;;;;26.13;20.20;;;13.70;99.90;;;;;;4952897;28;38567;-79
2022/09/11 05:31:16;;;;;;;24.25;19.83;;;13.70;99.90;;;;;;4950771;28;38459;-80
2022/09/11 05:33:44;;;;;;;27.85;21.25;;;13.70;99.90;;;;;;4954846;28;38269;-77
2022/09/11 05:36:11;;;;;;;27.63;20.58;;;13.70;99.90;;;;;;4955129;28;37517;-80
2022/09/11 05:38:37;;;;;;;29.63;22.38;;;13.80;99.90;;;;;;4942804;28;38362;-77
2022/09/11 05:41:05;;;;;;;23.73;19.75;;;13.80;99.90;;;;;;4939836;28;37278;-78
2022/09/11 05:43:34;;;;;;;29.05;21.80;;;13.80;99.90;;;;;;4958824;28;37066;-78
2022/09/11 05:46:01;;;;;;;28.92;22.05;;;13.80;99.90;;;;;;4954131;28;37399;-78
2022/09/11 05:48:28;;;;;;;30.08;22.70;;;13.80;99.90;;;;;;4940075;28;37430;-78
2022/09/11 05:51:00;;;;;;;21.50;18.83;;;13.80;99.90;;;;;;4960057;28;38071;-78
2022/09/11 05:53:29;;;;;;;27.23;21.65;;;13.80;99.90;;;;;;4960080;28;38253;-78
2022/09/11 05:55:55;;;;;;;28.45;21.38;;;13.80;99.90;;;;;;4938840;28;36268;-79
2022/09/11 05:58:21;;;;;;;24.15;19.40;;;13.80;99.90;;;;;;4946203;28;39624;-78
2022/09/11 06:00:48;;;;;;;30.70;21.02;;;13.90;99.90;;;;;;4938954;28;38236;-78
2022/09/11 06:03:18;;;;;;;20.95;18.63;;;13.90;99.90;;;;;;4956309;28;40038;-78
2022/09/11 06:05:44;;;;;;;25.60;19.58;;;14.00;99.90;;;;;;4940583;28;36457;-78
2022/09/11 06:08:11;;;;;;;26.55;21.95;;;14.00;99.90;;;;;;4937559;28;37734;-78
2022/09/11 06:10:47;;;;;;;28.23;21.83;;;14.00;99.90;;;;;;4956333;28;38170;-79
2022/09/11 06:13:22;;;;;;;27.52;21.42;;;14.10;99.90;;;;;;4952801;28;39227;-78
2022/09/11 06:15:50;;;;;;;30.23;21.70;;;14.10;99.90;;;;;;4954729;28;36962;-78
2022/09/11 06:18:17;;;;;;;25.20;20.55;;;14.20;99.90;;;;;;4937307;28;37659;-79
2022/09/11 06:20:56;;;;;;;27.85;22.80;;;14.20;99.90;;;;;;4943114;28;36958;-78
2022/09/11 06:23:22;;;;;;;27.67;22.35;;;14.20;99.90;;;;;;4959025;28;37528;-78
2022/09/11 06:25:48;;;;;;;29.30;22.80;;;14.30;99.90;;;;;;4953417;28;36808;-78
2022/09/11 06:28:15;;;;;;;26.02;21.95;;;14.40;99.90;;;;;;4941237;28;37766;-79
2022/09/11 06:30:41;;;;;;;32.50;24.02;;;14.40;99.90;;;;;;4949939;28;37610;-78
2022/09/11 06:33:07;;;;;;;31.42;26.27;;;14.40;99.90;;;;;;4964037;28;37226;-79
2022/09/11 06:35:33;;;;;;;35.67;26.20;;;14.50;99.90;;;;;;4943734;28;36474;-78
2022/09/11 06:38:00;;;;;;;33.92;27.77;;;14.60;99.90;;;;;;4953134;28;37582;-78
2022/09/11 06:40:26;;;;;;;39.75;28.02;;;14.60;99.90;;;;;;4943446;28;37822;-78
2022/09/11 06:42:53;;;;;;;40.30;28.25;;;14.70;99.90;;;;;;4945690;28;37257;-78
2022/09/11 06:45:19;;;;;;;45.65;31.25;;;14.80;99.90;;;;;;4948617;28;36390;-79
2022/09/11 06:47:46;;;;;;;46.38;31.20;;;14.90;99.90;;;;;;4965134;28;39659;-78
2022/09/11 06:50:13;;;;;;;44.47;31.52;;;15.10;99.90;;;;;;4964494;28;39037;-78
2022/09/11 06:52:40;;;;;;;50.60;32.65;;;15.20;99.90;;;;;;4942518;28;37408;-78
2022/09/11 06:55:06;;;;;;;62.55;37.83;;;15.30;99.90;;;;;;4947227;28;36708;-78
2022/09/11 06:57:33;;;;;;;59.28;37.58;;;15.40;99.90;;;;;;4959569;28;39926;-78
2022/09/11 06:59:59;;;;;;;64.78;40.25;;;15.70;99.90;;;;;;4941784;28;37527;-79
2022/09/11 07:02:28;;;;;;;73.10;43.25;;;15.80;99.90;;;;;;4943481;28;37259;-79
2022/09/11 07:04:54;;;;;;;95.47;50.30;;;15.90;99.90;;;;;;4936597;28;36314;-79
2022/09/11 07:07:21;;;;;;;77.30;43.58;;;16.10;99.90;;;;;;4956481;28;38715;-80
2022/09/11 07:09:47;;;;;;;89.55;47.63;;;16.20;99.90;;;;;;4956469;28;37723;-80
2022/09/11 07:12:13;;;;;;;86.90;47.10;;;16.30;99.90;;;;;;4940782;28;38719;-80
2022/09/11 07:14:40;;;;;;;61.85;41.25;;;16.50;99.90;;;;;;4951618;28;39532;-80
2022/09/11 07:17:06;;;;;;;62.00;41.88;;;16.50;99.90;;;;;;4947421;28;39165;-80
2022/09/11 07:19:32;;;;;;;60.03;41.22;;;16.60;99.90;;;;;;4939406;28;37402;-79
2022/09/11 07:22:04;;;;;;;64.03;43.58;;;16.70;99.90;;;;;;4931708;28;37535;-79
2022/09/11 07:24:31;;;;;;;73.22;45.30;;;16.80;99.90;;;;;;4928124;28;47305;-79
2022/09/11 07:27:03;;;;;;;58.85;40.40;;;16.90;99.90;;;;;;4978623;23;38815;-81
2022/09/11 07:29:30;;;;;;;58.72;40.13;;;17.00;99.90;;;;;;4948399;28;46769;-81
2022/09/11 07:31:57;;;;;;;67.03;43.90;;;17.10;99.90;;;;;;4968694;28;38179;-82
2022/09/11 07:34:24;;;;;;;55.13;39.42;;;17.10;99.90;;;;;;4961361;28;37920;-82
2022/09/11 07:36:51;;;;;;;52.40;37.15;;;17.20;99.90;;;;;;4963576;28;39155;-82
2022/09/11 07:39:18;;;;;;;45.42;34.05;;;17.30;99.90;;;;;;4964438;28;38035;-82
2022/09/11 07:41:49;;;;;;;45.45;32.80;;;17.30;99.90;;;;;;4967111;28;38785;-81
2022/09/11 07:44:15;;;;;;;38.08;30.17;;;17.40;99.90;;;;;;5000497;23;37907;-79
2022/09/11 07:46:41;;;;;;;33.80;26.15;;;17.40;99.90;;;;;;4956873;28;38531;-77
2022/09/11 07:49:09;;;;;;;28.48;24.65;;;17.40;99.90;;;;;;4967101;28;38068;-78
2022/09/11 07:51:36;;;;;;;26.73;23.55;;;17.50;99.90;;;;;;4958020;28;37197;-78
2022/09/11 07:54:03;;;;;;;26.88;23.85;;;17.60;99.90;;;;;;4958090;28;36788;-77
2022/09/11 07:56:29;;;;;;;26.23;22.75;;;17.70;99.90;;;;;;4957151;28;37576;-77
2022/09/11 07:58:56;;;;;;;23.35;20.50;;;18.00;99.90;;;;;;4956562;28;37538;-78
2022/09/11 08:01:28;;;;;;;32.03;25.20;;;18.30;99.90;;;;;;4962834;28;37366;-78
2022/09/11 08:04:00;;;;;;;28.00;22.75;;;18.60;99.90;;;;;;4964086;28;38463;-78
2022/09/11 08:06:28;;;;;;;21.20;19.05;;;19.00;99.90;;;;;;4968874;28;37969;-79
2022/09/11 08:09:14;;;;;;;19.98;17.95;;;19.30;99.90;;;;;;5005995;28;38085;-79
2022/09/11 08:11:44;;;;;;;20.58;17.05;;;19.70;99.90;;;;;;4948273;28;48549;-77
2022/09/11 08:14:12;;;;;;;21.25;16.50;;;20.00;99.90;;;;;;4967054;28;38930;-77
2022/09/11 08:16:39;;;;;;;21.38;18.98;;;20.20;99.90;;;;;;4946097;28;37969;-76
2022/09/11 08:19:06;;;;;;;21.13;18.88;;;20.50;99.90;;;;;;4950114;28;37355;-76
2022/09/11 08:21:33;;;;;;;24.33;21.38;;;20.80;99.90;;;;;;4961048;28;38589;-75
2022/09/11 08:23:59;;;;;;;20.55;18.42;;;21.00;99.90;;;;;;4963908;28;37435;-77
2022/09/11 08:26:27;;;;;;;19.27;17.27;;;20.90;99.90;;;;;;4961027;28;38388;-76
2022/09/11 08:28:55;;;;;;;17.02;14.15;;;20.90;99.90;;;;;;4965712;28;38117;-79
2022/09/11 08:31:27;;;;;;;14.98;12.93;;;21.20;99.90;;;;;;4961720;28;36943;-79
2022/09/11 08:33:55;;;;;;;21.23;17.70;;;21.50;99.90;;;;;;4971890;28;39245;-79
2022/09/11 08:36:22;;;;;;;16.23;14.60;;;21.50;99.90;;;;;;4949116;28;37465;-77
2022/09/11 08:38:48;;;;;;;15.27;13.80;;;21.40;99.90;;;;;;4945895;28;37345;-75
2022/09/11 08:41:47;;;;;;;13.95;11.43;;;21.30;99.90;;;;;;4947978;28;37254;-75
2022/09/11 08:44:21;;;;;;;9.68;8.30;;;21.00;99.90;;;;;;4956338;28;37542;-77
2022/09/11 08:46:54;;;;;;;9.25;7.13;;;21.20;99.90;;;;;;4943639;28;37406;-78
2022/09/11 08:49:27;;;;;;;12.02;8.48;;;21.50;99.90;;;;;;4960912;28;40073;-77
2022/09/11 08:51:58;;;;;;;10.85;7.53;;;21.70;99.90;;;;;;4961073;28;37473;-76
2022/09/11 08:54:32;;;;;;;9.82;5.53;;;22.00;99.90;;;;;;4960881;28;37153;-77
2022/09/11 08:57:53;;;;;;;8.32;5.60;;;22.10;99.90;;;;;;4965884;28;38932;-77
2022/09/11 09:00:20;;;;;;;6.97;5.75;;;21.80;99.90;;;;;;4921176;28;47706;-77
2022/09/11 09:03:16;;;;;;;6.60;5.85;;;21.50;99.90;;;;;;4962800;28;38456;-77
2022/09/11 09:06:01;;;;;;;7.57;5.75;;;21.30;99.90;;;;;;5164376;23;48357;-81
2022/09/11 09:08:27;;;;;;;6.82;6.03;;;21.00;99.90;;;;;;4959695;28;49018;-76
2022/09/11 09:11:18;;;;;;;6.70;4.60;;;20.80;99.90;;;;;;4958532;28;38274;-75
2022/09/11 09:14:08;;;;;;;5.00;4.20;;;20.70;99.90;;;;;;4942297;28;47273;-76
2022/09/11 09:17:02;;;;;;;4.63;4.18;;;20.60;99.90;;;;;;4942698;28;47558;-77
2022/09/11 09:19:33;;;;;;;4.20;3.80;;;20.50;99.90;;;;;;4949611;28;47083;-77
2022/09/11 09:22:11;;;;;;;3.90;3.50;;;20.50;99.90;;;;;;4967356;28;38538;-78
2022/09/11 09:24:49;;;;;;;3.45;3.15;;;20.50;99.90;;;;;;4973881;28;48825;-79
2022/09/11 09:27:20;;;;;;;5.05;3.40;;;20.50;99.90;;;;;;4949139;28;37177;-77
2022/09/11 09:29:51;;;;;;;5.87;3.73;;;20.40;99.90;;;;;;4954077;28;42454;-77
2022/09/11 09:32:27;;;;;;;7.90;4.55;;;20.40;99.90;;;;;;4965798;28;38602;-76
2022/09/11 09:34:59;;;;;;;6.93;4.35;;;20.50;99.90;;;;;;4966754;28;37838;-76
2022/09/11 09:37:27;;;;;;;6.40;5.43;;;20.50;99.90;;;;;;4952441;28;36413;-77
2022/09/11 09:39:54;;;;;;;5.03;4.45;;;20.70;99.90;;;;;;4966438;28;38547;-77
2022/09/11 09:42:27;;;;;;;6.85;5.10;;;21.00;99.90;;;;;;4946778;28;37305;-78
2022/09/11 09:45:02;;;;;;;6.03;4.80;;;21.50;99.90;;;;;;4952604;28;38202;-77
2022/09/11 09:47:29;;;;;;;6.22;3.80;;;21.90;99.90;;;;;;4981067;28;46417;-78
2022/09/11 09:49:57;;;;;;;8.02;4.35;;;22.00;99.90;;;;;;4979081;28;38556;-77
2022/09/11 09:52:30;;;;;;;9.07;3.97;;;22.20;99.90;;;;;;4952038;28;37571;-78
2022/09/11 09:55:17;;;;;;;4.82;3.50;;;22.20;99.90;;;;;;4974397;28;37808;-81
2022/09/11 10:03:22;;;;;;;5.68;3.00;;;22.90;99.90;;;;;;5759144;23;20048;-82
2022/09/11 10:16:55;;;;;;;2.45;1.90;;;24.10;99.90;;;;;;5247416;23;20038;-82
2022/09/11 10:46:48;;;;;;;3.00;1.55;;;23.20;99.90;;;;;;6027266;23;20847;31
2022/09/11 10:49:22;;;;;;;2.67;1.65;;;23.00;99.90;;;;;;4938505;28;37248;-79
2022/09/11 10:52:21;;;;;;;3.75;1.83;;;23.20;99.90;;;;;;4941217;28;37104;-79
2022/09/11 10:55:09;;;;;;;4.13;1.55;;;22.70;99.90;;;;;;4944670;28;49195;-79
2022/09/11 10:57:56;;;;;;;3.42;1.30;;;23.10;99.90;;;;;;4941502;28;48698;-82
2022/09/11 11:00:28;;;;;;;4.80;1.70;;;23.50;99.90;;;;;;4929103;28;39667;-77
2022/09/11 11:03:04;;;;;;;4.13;1.90;;;23.40;99.90;;;;;;4938426;28;36830;-79
2022/09/11 11:06:05;;;;;;;4.03;1.65;;;23.10;99.90;;;;;;4942893;28;47170;-79
2022/09/11 11:12:20;;;;;;;3.95;2.00;;;23.30;99.90;;;;;;4818288;26;20051;-79
2022/09/11 11:15:10;;;;;;;3.45;1.60;;;23.50;99.90;;;;;;4954187;28;50309;-79
2022/09/11 11:18:00;;;;;;;4.47;1.58;;;23.40;99.90;;;;;;4956714;28;48238;-79
2022/09/11 11:21:22;;;;;;;4.20;1.70;;;23.40;99.90;;;;;;4948652;28;38534;-80
2022/09/11 11:23:58;;;;;;;2.70;1.45;;;23.60;99.90;;;;;;4965050;23;47220;-76
2022/09/11 11:26:57;;;;;;;3.15;1.70;;;23.90;99.90;;;;;;4898760;29;37022;-77
2022/09/11 11:29:52;;;;;;;6.05;2.17;;;24.20;99.90;;;;;;4900132;29;36224;-77
2022/09/11 11:32:52;;;;;;;3.70;2.03;;;24.70;99.90;;;;;;4913968;29;39482;-78
2022/09/11 11:35:32;;;;;;;1.95;1.38;;;25.30;99.90;;;;;;4901766;29;37310;-78
2022/09/11 11:38:26;;;;;;;2.40;1.60;;;25.50;99.90;;;;;;4923394;29;38763;-78
2022/09/11 11:41:12;;;;;;;3.83;1.92;;;24.10;99.90;;;;;;4892161;29;47119;-79
2022/09/11 11:43:56;;;;;;;4.95;1.70;;;23.30;99.90;;;;;;5187385;23;49509;-77
2022/09/11 11:46:38;;;;;;;4.70;2.03;;;23.20;99.90;;;;;;4966817;28;40472;-77
2022/09/11 11:49:12;;;;;;;3.25;1.70;;;23.40;99.90;;;;;;4973563;28;37581;-79
2022/09/11 11:51:47;;;;;;;4.78;1.98;;;23.60;99.90;;;;;;4964771;28;38093;-79
2022/09/11 11:54:27;;;;;;;3.40;1.63;;;23.50;99.90;;;;;;4948383;28;37812;-79
2022/09/11 11:57:01;;;;;;;3.97;1.67;;;22.90;99.90;;;;;;4964774;28;36928;-78
2022/09/11 11:59:57;;;;;;;4.45;1.77;;;22.70;99.90;;;;;;4953665;28;46265;-78
2022/09/11 12:02:38;;;;;;;4.50;1.70;;;22.50;99.90;;;;;;4953900;28;36838;-78
2022/09/11 12:05:16;;;;;;;2.20;1.40;;;22.30;99.90;;;;;;4967916;28;41138;-78
2022/09/11 12:07:45;;;;;;;2.75;1.45;;;22.10;99.90;;;;;;4971554;28;38936;-78
2022/09/11 12:10:34;;;;;;;2.83;1.40;;;22.00;99.90;;;;;;4952746;28;37423;-79
2022/09/11 12:13:16;;;;;;;4.72;1.73;;;22.10;99.90;;;;;;4962359;28;36752;-78
2022/09/11 12:16:13;;;;;;;5.95;2.45;;;22.00;99.90;;;;;;4953159;28;47090;-78
2022/09/11 12:18:59;;;;;;;3.28;1.70;;;21.80;99.90;;;;;;4945383;28;47433;-78
2022/09/11 12:21:25;;;;;;;2.22;1.33;;;21.90;99.90;;;;;;4966376;28;38120;-77
2022/09/11 12:23:57;;;;;;;4.15;1.48;;;22.20;99.90;;;;;;4965094;28;37316;-78
2022/09/11 12:26:23;;;;;;;;;;;22.50;99.90;;;;;;4968518;28;38474;-78
2022/09/11 12:29:13;;;;;;;3.75;1.67;;;22.60;99.90;;;;;;4952113;28;38189;-79
2022/09/11 12:31:48;;;;;;;3.45;1.70;;;22.50;99.90;;;;;;4964697;28;48774;-77
2022/09/11 12:34:22;;;;;;;4.82;2.20;;;22.40;99.90;;;;;;4968235;28;37154;-76
2022/09/11 12:36:56;;;;;;;2.53;1.38;;;22.90;99.90;;;;;;4947662;28;38080;-77
2022/09/11 12:39:32;;;;;;;3.05;1.40;;;23.40;99.90;;;;;;4972453;28;38928;-76
2022/09/11 12:42:30;;;;;;;2.75;1.50;;;23.60;99.90;;;;;;4959157;28;38129;-77
2022/09/11 12:44:58;;;;;;;2.10;1.40;;;23.40;99.90;;;;;;4974603;28;49085;-79
2022/09/11 12:47:33;;;;;;;4.75;1.38;;;23.20;99.90;;;;;;4957552;28;38975;-78
2022/09/11 12:50:17;;;;;;;1.77;0.95;;;23.20;99.90;;;;;;4962305;28;39271;-78
2022/09/11 12:52:46;;;;;;;1.33;1.13;;;23.00;99.90;;;;;;4948507;28;47338;-77
2022/09/11 12:55:27;;;;;;;4.03;1.42;;;22.90;99.90;;;;;;4958371;28;36333;-79
2022/09/11 12:57:53;;;;;;;2.75;1.10;;;22.70;99.90;;;;;;4958541;28;37923;-77
2022/09/11 13:00:35;;;;;;;1.88;1.00;;;22.30;99.90;;;;;;4971625;28;38690;-76
2022/09/11 13:03:03;;;;;;;2.88;1.17;;;22.40;99.90;;;;;;4951814;28;38512;-77
2022/09/11 13:05:36;;;;;;;1.85;1.40;;;22.60;99.90;;;;;;4951858;28;47726;-76
2022/09/11 13:08:21;;;;;;;2.40;1.50;;;22.60;99.90;;;;;;4952979;28;39223;-76
2022/09/11 13:10:47;;;;;;;3.22;1.52;;;22.60;99.90;;;;;;4948499;28;38726;-76
2022/09/11 13:13:37;;;;;;;2.90;1.73;;;22.90;99.90;;;;;;4966412;28;38229;-76
2022/09/11 13:16:23;;;;;;;1.20;1.10;;;22.90;99.90;;;;;;4951867;28;35781;-76
2022/09/11 13:18:52;;;;;;;3.22;1.40;;;23.00;99.90;;;;;;4968393;28;39789;-77
2022/09/11 13:21:19;;;;;;;3.25;1.60;;;22.90;99.90;;;;;;4969733;28;38554;-77
2022/09/11 13:23:45;;;;;;;2.85;1.38;;;23.00;99.90;;;;;;4956020;28;38154;-77
2022/09/11 13:26:25;;;;;;;1.38;1.05;;;23.00;99.90;;;;;;4952167;28;37102;-78
2022/09/11 13:28:55;;;;;;;3.30;1.30;;;22.80;99.90;;;;;;4950770;28;37668;-78
2022/09/11 13:31:32;;;;;;;1.55;1.40;;;22.90;99.90;;;;;;4950939;28;38356;-78
2022/09/11 13:34:01;;;;;;;1.95;1.45;;;22.90;99.90;;;;;;4964900;28;37998;-76
2022/09/11 13:36:29;;;;;;;4.47;1.80;;;22.90;99.90;;;;;;4955317;28;47186;-76
2022/09/11 13:38:59;;;;;;;2.05;1.25;;;23.20;99.90;;;;;;4969311;28;38614;-77
2022/09/11 13:41:45;;;;;;;2.92;1.52;;;23.20;99.90;;;;;;4969676;28;39952;-77
2022/09/11 13:44:40;;;;;;;1.38;1.20;;;23.20;99.90;;;;;;4973934;28;36918;-76
2022/09/11 13:47:23;;;;;;;2.47;1.50;;;23.60;99.90;;;;;;4968735;28;36939;-76
2022/09/11 13:49:52;;;;;;;2.40;1.20;;;23.50;99.90;;;;;;4968942;28;39280;-76
2022/09/11 13:52:21;;;;;;;1.65;1.20;;;23.30;99.90;;;;;;4967407;28;38812;-76
2022/09/11 13:54:57;;;;;;;3.42;1.20;;;23.30;99.90;;;;;;4961845;28;37743;-76
2022/09/11 13:57:26;;;;;;;1.95;1.30;;;23.30;99.90;;;;;;4976431;28;37336;-76
2022/09/11 13:59:57;;;;;;;3.22;1.40;;;23.30;99.90;;;;;;4957858;28;37574;-76
2022/09/11 14:02:43;;;;;;;1.98;1.00;;;23.40;99.90;;;;;;4969687;28;37050;-76
2022/09/11 14:05:30;;;;;;;3.97;1.60;;;23.60;99.90;;;;;;4969205;28;39280;-76
2022/09/11 14:08:06;;;;;;;1.77;1.30;;;24.00;99.90;;;;;;4960491;28;36082;-76
2022/09/11 14:10:45;;;;;;;1.42;1.08;;;24.30;99.90;;;;;;4956675;28;47256;-76
2022/09/11 14:13:40;;;;;;;4.10;1.67;;;24.50;99.90;;;;;;4973729;28;38074;-75
2022/09/11 14:16:14;;;;;;;6.07;1.38;;;24.50;99.90;;;;;;4982951;28;38964;-76
2022/09/11 14:19:02;;;;;;;1.77;0.95;;;24.10;99.90;;;;;;4942101;28;37289;-76
2022/09/11 14:21:35;;;;;;;2.53;1.20;;;23.80;99.90;;;;;;4963399;28;47004;-76
2022/09/11 14:24:06;;;;;;;2.90;1.00;;;23.80;99.90;;;;;;4972323;28;38624;-76
2022/09/11 14:26:33;;;;;;;1.77;1.35;;;23.60;99.90;;;;;;4937292;28;37072;-77
2022/09/11 14:29:01;;;;;;;2.35;1.20;;;23.50;99.90;;;;;;4964057;28;37489;-78
2022/09/11 14:31:40;;;;;;;3.03;1.17;;;23.40;99.90;;;;;;4954356;28;37629;-78
2022/09/11 14:34:14;;;;;;;2.40;1.10;;;23.40;99.90;;;;;;4954794;28;37549;-78
2022/09/11 14:37:06;;;;;;;3.53;1.70;;;23.30;99.90;;;;;;4958557;28;37137;-78
2022/09/11 14:39:45;;;;;;;1.38;0.98;;;23.30;99.90;;;;;;4987832;28;47868;-81
2022/09/11 14:42:27;;;;;;;1.70;1.10;;;23.20;99.90;;;;;;4972520;28;39075;-82
2022/09/11 14:58:00;;;;;;;3.67;1.55;;;23.00;99.90;;;;;;5920994;22;20054;-80
2022/09/11 15:03:16;;;;;;;1.88;1.23;;;23.20;99.90;;;;;;5378829;23;20041;-79
2022/09/11 15:05:45;;;;;;;3.47;1.27;;;23.20;99.90;;;;;;4963714;28;38257;-80
2022/09/11 15:08:14;;;;;;;2.03;1.10;;;23.20;99.90;;;;;;5229663;23;38983;-78